createdAt,value
2023-04-01T13:03:54.158Z,57.9933
2023-04-01T13:04:55.780Z,58.0300
2023-04-01T13:05:57.148Z,59.1238
2023-04-01T13:06:58.679Z,58.1192
2023-04-01T13:15:21.828Z,50.4067
2023-04-01T13:16:23.394Z,50.2331
2023-04-01T13:17:24.926Z,50.5638
2023-04-01T13:18:26.435Z,50.9431
2023-04-01T13:19:27.902Z,51.3469
2023-04-01T13:20:29.445Z,51.6246
2023-04-01T13:21:30.990Z,51.7962
2023-04-01T13:22:32.512Z,51.9469
2023-04-01T13:23:33.983Z,52.1054
2023-04-01T13:24:35.780Z,52.1992
2023-04-01T13:25:37.054Z,52.3631
2023-04-01T13:26:38.568Z,52.5677
2023-04-01T13:27:40.130Z,52.5969
2023-04-01T13:28:41.631Z,52.5838
2023-04-01T13:29:43.206Z,52.6208
2023-04-01T13:30:44.691Z,52.7231
2023-04-01T13:31:46.225Z,52.7369
2023-04-01T13:32:47.839Z,52.8000
2023-04-01T13:33:49.214Z,52.9077
2023-04-01T13:34:50.838Z,52.8538
2023-04-01T13:35:52.315Z,52.7485
2023-04-01T13:36:53.827Z,52.7562
2023-04-01T13:37:55.353Z,52.8069
2023-04-01T13:38:56.857Z,52.7931
2023-04-01T13:39:58.374Z,52.8023
2023-04-01T13:41:03.498Z,52.7631
2023-04-01T16:09:08.464Z,53.6325
2023-04-01T16:10:09.962Z,53.2608
2023-04-01T16:11:11.504Z,53.1992
2023-04-01T16:12:13.039Z,53.1831
2023-04-01T16:13:14.552Z,53.1062
2023-04-01T16:14:16.085Z,53.0754
2023-04-01T16:15:17.619Z,53.0823
2023-04-01T16:16:19.239Z,53.1785
2023-04-01T16:17:20.732Z,53.2738
2023-04-01T16:18:22.202Z,53.1531
2023-04-01T16:19:23.857Z,53.1800
2023-04-01T16:20:25.260Z,53.2385
2023-04-01T16:21:26.780Z,53.2369
2023-04-01T16:22:28.322Z,53.2669
2023-04-01T16:23:29.841Z,53.3754
2023-04-01T16:24:31.383Z,53.2900
2023-04-01T16:25:33.056Z,53.3015
2023-04-01T16:26:34.451Z,53.1415
2023-04-01T16:27:36.058Z,53.2231
2023-04-01T16:28:37.622Z,53.3215
2023-04-01T16:29:39.130Z,53.3900
2023-04-01T16:30:40.657Z,53.4631
2023-04-01T16:31:42.103Z,53.3238
2023-04-01T16:32:43.868Z,53.3508
2023-04-01T16:33:45.140Z,53.4208
2023-04-01T16:34:46.682Z,53.5085
2023-04-01T16:35:48.337Z,53.3023
2023-04-01T16:36:49.925Z,53.2654
2023-04-01T16:37:51.287Z,53.2500
2023-04-01T16:38:53.013Z,53.1969
2023-04-01T16:39:54.321Z,53.2408
2023-04-01T16:40:55.858Z,53.2485
2023-04-01T16:41:57.390Z,53.1854
2023-04-01T16:42:58.911Z,53.1354
2023-04-01T16:44:00.434Z,53.1246
2023-04-01T16:45:01.970Z,53.1915
2023-04-01T16:46:03.537Z,53.1685
2023-04-01T16:47:05.073Z,53.2338
2023-04-01T16:48:06.686Z,53.1838
2023-04-01T16:49:08.162Z,53.2831
2023-04-01T16:50:09.596Z,53.3331
2023-04-01T16:51:11.183Z,53.4831
2023-04-01T16:52:12.859Z,53.4662
2023-04-01T16:53:14.361Z,53.3138
2023-04-01T16:54:15.708Z,53.2723
2023-04-01T16:55:17.254Z,53.2715
2023-04-01T16:56:18.784Z,53.2085
2023-04-01T16:57:20.385Z,53.1477
2023-04-01T16:58:21.906Z,53.2323
2023-04-01T16:59:23.596Z,53.0938
2023-04-01T17:00:25.703Z,52.8438
2023-04-01T17:01:28.760Z,52.7100
2023-04-01T17:02:28.017Z,52.7092
2023-04-01T17:03:29.474Z,52.6638
2023-04-01T17:04:31.061Z,52.7177
2023-04-01T17:05:32.534Z,52.8569
2023-04-01T17:06:34.053Z,53.0700
2023-04-01T17:07:35.608Z,53.3577
2023-04-01T17:08:37.152Z,53.5962
2023-04-01T17:09:38.649Z,53.6846
2023-04-01T17:10:40.176Z,53.6554
2023-04-01T17:11:41.795Z,53.8900
2023-04-01T17:12:43.407Z,54.1385
2023-04-01T17:13:44.884Z,54.3062
2023-04-01T17:14:46.670Z,54.1462
2023-04-01T17:15:48.063Z,54.5546
2023-04-01T17:16:49.342Z,54.4315
2023-04-01T17:17:50.956Z,54.3146
2023-04-01T17:18:52.386Z,54.2638
2023-04-01T17:19:53.930Z,54.2092
2023-04-01T17:20:55.492Z,54.1785
2023-04-01T17:21:57.002Z,54.2077
2023-04-01T17:22:58.608Z,54.2715
2023-04-01T17:24:00.063Z,54.3869
2023-04-01T17:25:01.564Z,54.3854
2023-04-01T17:26:03.119Z,54.4200
2023-04-01T17:27:04.657Z,54.3054
2023-04-01T17:28:06.158Z,54.2531
2023-04-01T17:29:07.728Z,54.3254
2023-04-01T17:30:09.207Z,54.2946
2023-04-01T17:31:10.853Z,54.3054
2023-04-01T17:32:12.262Z,54.2577
2023-04-01T17:33:13.826Z,54.3131
2023-04-01T17:34:15.344Z,54.2515
2023-04-01T17:35:16.896Z,54.2292
2023-04-01T17:36:18.381Z,54.1846
2023-04-01T17:37:19.981Z,54.1992
2023-04-01T17:38:21.463Z,54.2777
2023-04-01T17:39:22.954Z,54.2262
2023-04-01T17:40:24.658Z,54.2131
2023-04-01T17:41:26.033Z,54.1623
2023-04-01T17:42:27.533Z,54.1154
2023-04-01T17:43:29.084Z,54.1877
2023-04-01T17:44:30.690Z,54.1500
2023-04-01T17:45:32.231Z,54.2046
2023-04-01T17:46:33.733Z,54.2346
2023-04-01T17:47:35.204Z,54.2869
2023-04-01T17:48:36.784Z,54.1900
2023-04-01T17:49:38.278Z,54.2515
2023-04-01T17:50:39.791Z,54.2977
2023-04-01T17:51:41.462Z,54.3323
2023-04-01T17:52:42.803Z,54.2546
2023-04-01T17:53:44.349Z,54.3731
2023-04-01T17:54:45.873Z,54.3815
2023-04-01T17:55:47.430Z,54.3123
2023-04-01T17:56:48.998Z,54.3446
2023-04-01T17:57:50.450Z,54.3531
2023-04-01T17:58:52.018Z,54.2977
2023-04-01T17:59:53.548Z,54.2523
2023-04-01T18:00:55.028Z,54.5208
2023-04-01T18:01:56.593Z,55.5592
2023-04-01T18:02:58.131Z,56.1108
2023-04-01T18:04:00.150Z,55.8331
2023-04-01T18:05:01.166Z,55.5192
2023-04-01T18:06:02.723Z,55.4462
2023-04-01T18:07:04.204Z,55.3146
2023-04-01T18:08:05.703Z,55.1377
2023-04-01T18:09:07.254Z,55.0762
2023-04-01T18:10:08.825Z,54.9292
2023-04-01T18:11:10.305Z,54.9062
2023-04-01T18:12:11.804Z,54.8300
2023-04-01T18:13:13.341Z,54.7800
2023-04-01T18:14:14.943Z,54.7808
2023-04-01T18:15:16.421Z,54.7615
2023-04-01T18:16:18.134Z,54.7231
2023-04-01T18:17:19.515Z,54.7323
2023-04-01T18:18:20.984Z,54.6308
2023-04-01T18:19:22.527Z,54.4946
2023-04-01T18:20:24.028Z,54.5769
2023-04-01T18:21:25.582Z,54.5900
2023-04-01T18:22:27.092Z,54.5208
2023-04-01T18:23:28.776Z,54.5208
2023-04-01T18:24:30.162Z,54.5523
2023-04-01T18:25:31.664Z,54.4962
2023-04-01T18:26:33.237Z,54.4631
2023-04-01T18:27:34.765Z,54.4392
2023-04-01T18:28:36.235Z,54.4123
2023-04-01T18:29:37.856Z,54.4154
2023-04-01T18:30:39.321Z,54.4508
2023-04-01T18:31:40.899Z,54.3754
2023-04-01T18:32:42.497Z,54.3362
2023-04-01T18:33:43.958Z,54.3200
2023-04-01T18:34:45.440Z,54.3685
2023-04-01T18:35:47.051Z,54.3115
2023-04-01T18:36:49.437Z,54.3054
